createdAt,value
2023-04-15T00:00:26.281Z,8.20
2023-04-15T00:01:26.457Z,8.10
2023-04-15T00:02:26.437Z,8.70
2023-04-15T00:03:26.492Z,8.30
2023-04-15T00:04:26.528Z,8.20
2023-04-15T00:05:25.376Z,8.40
2023-04-15T00:06:25.351Z,7.80
2023-04-15T00:07:26.350Z,9.40
2023-04-15T00:08:25.387Z,7.50
2023-04-15T00:09:25.329Z,8.00
2023-04-15T00:10:26.064Z,9.00
2023-04-15T00:11:26.246Z,8.60
2023-04-15T00:12:26.131Z,8.60
2023-04-15T00:13:26.031Z,7.60
2023-04-15T00:14:25.241Z,7.60
2023-04-15T00:15:25.322Z,7.10
2023-04-15T00:16:25.362Z,8.10
2023-04-15T00:17:25.268Z,8.80
2023-04-15T00:18:25.221Z,8.50
2023-04-15T00:19:25.183Z,8.90
2023-04-15T00:20:26.178Z,10.70
2023-04-15T00:21:26.035Z,9.40
2023-04-15T00:22:25.140Z,8.10
2023-04-15T00:23:25.127Z,7.30
2023-04-15T00:24:26.061Z,8.50
2023-04-15T00:25:25.910Z,9.70
2023-04-15T00:26:25.086Z,8.60
2023-04-15T00:27:25.976Z,9.10
2023-04-15T00:28:25.273Z,8.70
2023-04-15T00:29:26.032Z,8.10
2023-04-15T00:30:25.216Z,9.10
2023-04-15T00:31:26.027Z,10.00
2023-04-15T00:32:25.776Z,12.30
2023-04-15T00:33:25.228Z,11.90
2023-04-15T00:34:25.200Z,12.40
2023-04-15T00:35:24.948Z,12.20
2023-04-15T00:36:24.925Z,14.60
2023-04-15T00:37:25.200Z,14.50
2023-04-15T00:38:25.264Z,10.50
2023-04-15T00:39:25.223Z,10.80
2023-04-15T00:40:25.233Z,10.00
2023-04-15T00:41:25.272Z,11.20
2023-04-15T00:42:25.270Z,9.60
2023-04-15T00:43:25.202Z,12.20
2023-04-15T00:44:25.381Z,11.80
2023-04-15T00:45:25.273Z,10.50
2023-04-15T00:46:24.910Z,11.30
2023-04-15T00:47:25.554Z,11.10
2023-04-15T00:48:25.751Z,12.50
2023-04-15T00:49:25.230Z,11.50
2023-04-15T00:50:24.792Z,11.50
2023-04-15T00:51:24.738Z,10.50
2023-04-15T00:52:24.851Z,10.00
2023-04-15T00:53:24.894Z,11.30
2023-04-15T00:54:25.118Z,10.50
2023-04-15T00:55:25.188Z,10.90
2023-04-15T00:56:24.720Z,11.00
2023-04-15T00:57:24.654Z,11.90
2023-04-15T00:58:24.621Z,11.50
2023-04-15T00:59:24.661Z,10.00
2023-04-15T01:00:24.778Z,12.50
2023-04-15T01:01:24.604Z,12.90
2023-04-15T01:02:24.719Z,8.70
2023-04-15T01:03:25.449Z,8.30
2023-04-15T01:04:24.674Z,10.20
2023-04-15T01:05:25.410Z,9.80
2023-04-15T01:06:25.318Z,9.60
2023-04-15T01:07:25.508Z,11.40
2023-04-15T01:08:25.371Z,9.90
2023-04-15T01:09:25.359Z,8.90
2023-04-15T01:10:25.466Z,9.60
2023-04-15T01:11:24.461Z,8.30
2023-04-15T01:12:24.574Z,9.80
2023-04-15T01:13:25.402Z,9.30
2023-04-15T01:14:25.322Z,8.00
2023-04-15T01:15:24.570Z,9.50
2023-04-15T01:16:24.689Z,11.40
2023-04-15T01:17:24.419Z,10.30
2023-04-15T01:18:25.201Z,9.00
2023-04-15T01:19:25.368Z,10.20
2023-04-15T01:20:24.330Z,9.40
2023-04-15T01:21:25.140Z,8.90
2023-04-15T01:22:25.055Z,11.00
2023-04-15T01:23:25.207Z,9.40
2023-04-15T01:24:25.105Z,9.50
2023-04-15T01:25:25.276Z,9.90
2023-04-15T01:26:24.288Z,9.20
2023-04-15T01:27:25.076Z,10.00
2023-04-15T01:28:24.201Z,9.30
2023-04-15T01:29:24.210Z,9.10
2023-04-15T01:30:24.257Z,9.70
2023-04-15T01:31:25.003Z,9.00
2023-04-15T01:32:25.126Z,10.50
2023-04-15T01:33:25.068Z,9.90
2023-04-15T01:34:24.174Z,10.80
2023-04-15T01:35:24.187Z,9.70
2023-04-15T01:36:25.017Z,9.70
2023-04-15T01:37:24.135Z,9.80
2023-04-15T01:38:25.056Z,10.50
2023-04-15T01:39:24.451Z,10.00
2023-04-15T01:40:25.038Z,9.00
2023-04-15T01:41:24.172Z,10.60
2023-04-15T01:42:25.014Z,9.90
2023-04-15T01:43:24.001Z,11.70
2023-04-15T01:44:24.702Z,11.60
2023-04-15T01:45:24.301Z,10.50
2023-04-15T01:46:24.707Z,12.00
2023-04-15T01:47:24.677Z,9.80
2023-04-15T01:48:23.983Z,11.00
2023-04-15T01:49:23.932Z,9.70
2023-04-15T01:50:24.890Z,11.80
2023-04-15T01:51:24.861Z,10.20
2023-04-15T01:52:24.724Z,9.90
2023-04-15T01:53:24.084Z,10.00
2023-04-15T01:54:23.870Z,9.70
2023-04-15T01:55:24.696Z,9.90
2023-04-15T01:56:24.601Z,10.90
2023-04-15T01:57:23.804Z,11.10
2023-04-15T01:58:24.433Z,9.90
2023-04-15T01:59:24.527Z,10.30
2023-04-15T02:00:24.650Z,10.90
2023-04-15T02:01:24.594Z,11.00
2023-04-15T02:02:24.026Z,11.00
2023-04-15T02:03:23.825Z,10.00
2023-04-15T02:04:25.660Z,10.50
2023-04-15T02:05:24.548Z,9.80
2023-04-15T02:06:26.255Z,12.70
2023-04-15T02:07:24.600Z,11.50
2023-04-15T02:08:24.519Z,11.60
2023-04-15T02:09:23.664Z,11.00
2023-04-15T02:10:23.720Z,11.70
2023-04-15T02:11:23.622Z,10.50
2023-04-15T02:12:24.693Z,10.20
2023-04-15T02:13:24.542Z,13.20
2023-04-15T02:14:23.648Z,13.60
2023-04-15T02:15:24.649Z,12.80
2023-04-15T02:16:24.630Z,13.10
2023-04-15T02:17:24.426Z,14.80
2023-04-15T02:18:24.316Z,14.70
2023-04-15T02:19:23.527Z,13.90
2023-04-15T02:20:23.645Z,13.50
2023-04-15T02:21:23.473Z,12.80
2023-04-15T02:22:23.465Z,15.30
2023-04-15T02:23:23.548Z,14.30
2023-04-15T02:24:23.454Z,14.50
2023-04-15T02:25:23.433Z,13.00
2023-04-15T02:26:23.565Z,15.00
2023-04-15T02:27:23.381Z,13.10
2023-04-15T02:28:24.344Z,13.20
2023-04-15T02:29:24.247Z,12.50
2023-04-15T02:30:23.372Z,12.40
2023-04-15T02:31:24.360Z,13.80
2023-04-15T02:32:23.389Z,14.70
2023-04-15T02:33:24.130Z,14.20
2023-04-15T02:34:23.332Z,15.30
2023-04-15T02:35:23.335Z,14.20
2023-04-15T02:36:23.293Z,12.70
2023-04-15T02:37:23.310Z,15.60
2023-04-15T02:38:23.234Z,16.40
2023-04-15T02:39:24.057Z,15.50
2023-04-15T02:40:24.010Z,15.70
2023-04-15T02:41:24.124Z,14.90
2023-04-15T02:42:23.275Z,16.50
2023-04-15T02:43:23.244Z,17.60
2023-04-15T02:44:23.357Z,18.00
2023-04-15T02:45:23.186Z,17.10
2023-04-15T02:46:23.324Z,15.90
2023-04-15T02:47:24.110Z,18.90
2023-04-15T02:48:23.100Z,15.00
2023-04-15T02:49:23.097Z,17.10
2023-04-15T02:50:24.029Z,17.50
2023-04-15T02:51:23.926Z,18.70
2023-04-15T02:52:23.862Z,16.00
2023-04-15T02:53:24.002Z,19.60
2023-04-15T02:54:23.907Z,17.70
2023-04-15T02:55:23.001Z,18.10
2023-04-15T02:56:23.129Z,19.30
2023-04-15T02:57:23.914Z,17.80
2023-04-15T02:58:23.008Z,18.80
2023-04-15T02:59:23.927Z,20.50
2023-04-15T03:00:23.862Z,18.90
2023-04-15T03:01:23.767Z,20.00
2023-04-15T03:02:23.974Z,17.50
2023-04-15T03:03:23.907Z,17.40
2023-04-15T03:04:22.936Z,19.10
2023-04-15T03:05:23.345Z,17.70
2023-04-15T03:06:23.830Z,19.80
2023-04-15T03:07:22.904Z,17.70
2023-04-15T03:08:23.836Z,17.80
2023-04-15T03:09:23.772Z,20.20
2023-04-15T03:10:23.641Z,23.90
2023-04-15T03:11:23.261Z,20.00
2023-04-15T03:12:22.756Z,19.10
2023-04-15T03:13:23.292Z,20.70
2023-04-15T03:14:23.298Z,20.50
2023-04-15T03:15:23.682Z,18.60
2023-04-15T03:16:23.581Z,20.10
2023-04-15T03:17:22.751Z,20.70
2023-04-15T03:18:23.642Z,19.40
2023-04-15T03:19:23.548Z,23.70
2023-04-15T03:20:23.525Z,22.30
2023-04-15T03:21:23.628Z,24.20
2023-04-15T03:22:23.521Z,25.20
2023-04-15T03:23:22.645Z,25.10
2023-04-15T03:24:23.055Z,21.50
2023-04-15T03:25:23.517Z,21.80
2023-04-15T03:26:23.383Z,23.10
2023-04-15T03:27:22.583Z,21.90
2023-04-15T03:28:22.539Z,22.10
2023-04-15T03:29:22.573Z,26.60
2023-04-15T03:30:23.254Z,23.90
2023-04-15T03:31:22.563Z,20.00
2023-04-15T03:32:23.357Z,24.10
2023-04-15T03:33:23.389Z,20.70
2023-04-15T03:34:23.387Z,22.60
2023-04-15T03:35:23.350Z,21.20
2023-04-15T03:36:23.204Z,20.00
2023-04-15T03:37:23.331Z,27.60
2023-04-15T03:38:23.286Z,25.60
2023-04-15T03:39:22.654Z,22.90
2023-04-15T03:40:22.416Z,22.70
2023-04-15T03:41:22.413Z,26.30
2023-04-15T03:42:22.450Z,24.80
2023-04-15T03:43:22.431Z,21.50
2023-04-15T03:44:22.354Z,25.60
2023-04-15T03:45:22.353Z,25.10
2023-04-15T03:46:22.331Z,22.20
2023-04-15T03:47:22.475Z,22.30
2023-04-15T03:48:23.120Z,24.70
2023-04-15T03:49:23.252Z,23.60
2023-04-15T03:50:22.531Z,28.00
2023-04-15T03:51:22.315Z,25.70
2023-04-15T03:52:23.262Z,26.20
2023-04-15T03:53:22.184Z,24.10
2023-04-15T03:54:22.447Z,27.30
2023-04-15T03:55:22.179Z,28.60
2023-04-15T03:56:22.231Z,25.40
2023-04-15T03:57:22.169Z,23.80
2023-04-15T03:58:22.142Z,22.30
2023-04-15T03:59:22.112Z,24.00
2023-04-15T04:00:22.140Z,23.30
2023-04-15T04:01:22.332Z,21.40
2023-04-15T04:02:22.205Z,23.60
2023-04-15T04:03:22.688Z,20.90
2023-04-15T04:04:22.899Z,20.30
2023-04-15T04:05:22.027Z,20.70
2023-04-15T04:06:22.112Z,25.20
2023-04-15T04:07:22.220Z,26.70
2023-04-15T04:08:22.118Z,21.80
2023-04-15T04:09:22.388Z,22.70
2023-04-15T04:10:21.992Z,19.70
2023-04-15T04:11:21.990Z,21.50
2023-04-15T04:12:22.094Z,24.30
2023-04-15T04:13:22.364Z,24.70
2023-04-15T04:14:22.339Z,23.00
2023-04-15T04:15:22.464Z,25.40
2023-04-15T04:16:21.992Z,20.80
2023-04-15T04:17:21.978Z,21.10
2023-04-15T04:18:22.044Z,22.70
2023-04-15T04:19:21.910Z,24.00
2023-04-15T04:20:21.888Z,27.20
2023-04-15T04:21:22.118Z,25.90
2023-04-15T04:22:21.897Z,27.00
2023-04-15T04:23:21.802Z,21.40
2023-04-15T04:24:21.860Z,25.70
2023-04-15T04:25:21.870Z,24.20
2023-04-15T04:26:21.862Z,20.70
2023-04-15T04:27:21.713Z,25.90
2023-04-15T04:28:21.763Z,26.70
2023-04-15T04:29:21.776Z,25.70
2023-04-15T04:30:21.684Z,26.60
2023-04-15T04:31:21.721Z,25.70
2023-04-15T04:32:21.678Z,26.70
2023-04-15T04:33:21.702Z,26.50
2023-04-15T04:34:21.625Z,23.90
2023-04-15T04:35:22.398Z,25.40
2023-04-15T04:36:21.616Z,26.50
2023-04-15T04:37:21.745Z,31.00
2023-04-15T04:38:21.769Z,28.60
2023-04-15T04:39:21.712Z,24.90
2023-04-15T04:40:21.519Z,27.80
2023-04-15T04:41:21.751Z,27.50
2023-04-15T04:42:21.566Z,28.00
2023-04-15T04:43:21.690Z,27.90
2023-04-15T04:44:21.771Z,29.10
2023-04-15T04:45:21.745Z,28.60
2023-04-15T04:46:21.521Z,31.40
2023-04-15T04:47:21.514Z,31.20
2023-04-15T04:48:22.423Z,36.60
2023-04-15T04:49:22.343Z,32.70
2023-04-15T04:50:21.465Z,33.00
2023-04-15T04:51:22.459Z,37.80
2023-04-15T04:52:22.309Z,34.10
2023-04-15T04:53:22.241Z,32.80
2023-04-15T04:54:22.125Z,38.60
2023-04-15T04:55:22.355Z,39.70
2023-04-15T04:56:21.431Z,36.20
2023-04-15T04:57:21.804Z,31.60
2023-04-15T04:58:21.410Z,35.70
2023-04-15T04:59:22.210Z,32.30
2023-04-15T05:00:22.049Z,37.20
2023-04-15T05:01:22.335Z,37.60
2023-04-15T05:02:22.218Z,35.30
2023-04-15T05:03:21.414Z,35.90
2023-04-15T05:04:21.249Z,32.20
2023-04-15T05:05:21.272Z,45.00
2023-04-15T05:06:21.245Z,35.80
2023-04-15T05:07:21.206Z,46.80
2023-04-15T05:08:21.183Z,51.20
2023-04-15T05:09:21.214Z,41.90
2023-04-15T05:10:21.122Z,45.80
2023-04-15T05:11:22.024Z,39.30
2023-04-15T05:12:21.143Z,40.00
2023-04-15T05:13:21.258Z,41.50
2023-04-15T05:14:23.331Z,38.40
2023-04-15T05:15:21.080Z,40.80
2023-04-15T05:16:22.090Z,43.90
2023-04-15T05:17:21.103Z,44.90
2023-04-15T05:18:21.875Z,45.00
2023-04-15T05:19:21.003Z,54.30
2023-04-15T05:20:29.979Z,60.50
2023-04-15T05:21:21.824Z,45.90
2023-04-15T05:22:20.973Z,55.00
2023-04-15T05:23:21.082Z,51.50
2023-04-15T05:24:21.471Z,54.30
2023-04-15T05:25:20.983Z,53.50
2023-04-15T05:26:23.620Z,55.60
2023-04-15T05:27:21.149Z,48.30
2023-04-15T05:28:22.363Z,52.30
2023-04-15T05:29:20.859Z,50.00
2023-04-15T05:30:21.064Z,51.00
2023-04-15T05:31:21.549Z,47.80
2023-04-15T05:32:21.697Z,47.20
2023-04-15T05:33:22.214Z,47.80
2023-04-15T05:34:21.056Z,54.00
2023-04-15T05:35:20.776Z,45.80
2023-04-15T05:36:20.895Z,53.50
2023-04-15T05:37:21.226Z,52.80
2023-04-15T05:38:21.156Z,47.50
2023-04-15T05:39:21.282Z,43.40
2023-04-15T05:40:20.808Z,43.10
2023-04-15T05:41:20.721Z,55.40
2023-04-15T05:42:21.154Z,46.60
2023-04-15T05:43:21.055Z,54.90
2023-04-15T05:44:21.744Z,48.50
2023-04-15T05:45:20.825Z,61.00
2023-04-15T05:46:21.595Z,53.30
2023-04-15T05:47:20.841Z,49.50
2023-04-15T05:48:48.974Z,57.70
2023-04-15T05:49:21.192Z,56.20
2023-04-15T05:50:20.684Z,54.90
2023-04-15T05:51:20.664Z,53.70
2023-04-15T05:52:21.550Z,52.20
2023-04-15T05:53:21.061Z,56.60
2023-04-15T05:54:22.858Z,60.40
2023-04-15T05:55:21.351Z,49.90
2023-04-15T05:56:20.731Z,48.50
2023-04-15T05:57:20.732Z,51.40
2023-04-15T05:58:20.570Z,57.10
2023-04-15T05:59:20.666Z,50.00
2023-04-15T06:00:21.047Z,54.70
2023-04-15T06:01:21.508Z,45.40
2023-04-15T06:02:20.700Z,64.40
2023-04-15T06:03:21.560Z,51.10
2023-04-15T06:04:20.513Z,52.80
2023-04-15T06:05:20.606Z,50.50
2023-04-15T06:06:20.989Z,52.30
2023-04-15T06:07:20.435Z,58.90
2023-04-15T06:08:20.725Z,61.20
2023-04-15T06:09:21.087Z,55.00
2023-04-15T06:10:20.452Z,49.60
2023-04-15T06:11:20.396Z,55.10
2023-04-15T06:12:20.586Z,52.50
2023-04-15T06:13:20.696Z,48.60
2023-04-15T06:14:21.152Z,59.30
2023-04-15T06:15:21.728Z,58.10
2023-04-15T06:16:20.371Z,51.80
2023-04-15T06:17:20.690Z,46.90
2023-04-15T06:18:20.294Z,57.30
2023-04-15T06:19:20.437Z,66.30
2023-04-15T06:20:20.388Z,51.90
2023-04-15T06:21:21.929Z,60.40
2023-04-15T06:22:21.102Z,56.00
2023-04-15T06:23:20.992Z,50.80
2023-04-15T06:24:20.138Z,51.40
2023-04-15T06:25:21.123Z,56.40
2023-04-15T06:26:20.966Z,62.80
2023-04-15T06:27:20.096Z,76.80
2023-04-15T06:28:21.030Z,62.90
2023-04-15T06:29:20.045Z,59.10
2023-04-15T06:30:20.612Z,65.20
2023-04-15T06:31:21.011Z,53.30
2023-04-15T06:32:20.887Z,49.60
2023-04-15T06:33:19.993Z,58.30
2023-04-15T06:34:21.028Z,61.10
2023-04-15T06:35:19.983Z,49.20
2023-04-15T06:36:19.940Z,49.90
2023-04-15T06:37:19.908Z,58.20
2023-04-15T06:38:19.915Z,57.70
2023-04-15T06:39:20.754Z,57.20
2023-04-15T06:40:20.882Z,49.90
2023-04-15T06:41:19.916Z,55.50
2023-04-15T06:42:19.922Z,64.70
2023-04-15T06:43:20.328Z,66.00
2023-04-15T06:44:20.754Z,61.60
2023-04-15T06:45:20.661Z,68.10
2023-04-15T06:46:20.514Z,70.80
2023-04-15T06:47:20.743Z,70.40
2023-04-15T06:48:19.781Z,71.90
2023-04-15T06:49:19.784Z,58.50
2023-04-15T06:50:20.275Z,59.50
2023-04-15T06:51:19.851Z,60.80
2023-04-15T06:52:20.038Z,58.80
2023-04-15T06:53:20.123Z,50.80
2023-04-15T06:54:20.565Z,48.50
2023-04-15T06:55:19.725Z,62.80
2023-04-15T06:56:19.710Z,55.70
2023-04-15T06:57:20.529Z,49.80
2023-04-15T06:58:19.725Z,51.20
2023-04-15T06:59:20.334Z,47.30
2023-04-15T07:00:20.274Z,58.50
2023-04-15T07:01:20.327Z,60.70
2023-04-15T07:02:19.664Z,63.40
2023-04-15T07:03:19.700Z,55.10
2023-04-15T07:04:19.966Z,50.70
2023-04-15T07:05:19.531Z,57.90
2023-04-15T07:06:20.466Z,53.50
2023-04-15T07:07:19.508Z,48.50
2023-04-15T07:08:19.521Z,50.10
2023-04-15T07:09:19.510Z,59.30
2023-04-15T07:10:20.274Z,56.30
2023-04-15T07:11:19.464Z,54.30
2023-04-15T07:12:20.367Z,50.40
2023-04-15T07:13:19.461Z,54.90
2023-04-15T07:14:19.460Z,63.50
2023-04-15T07:15:19.524Z,75.90
2023-04-15T07:16:19.491Z,67.70
2023-04-15T07:17:19.438Z,67.90
2023-04-15T07:18:20.311Z,54.60
2023-04-15T07:19:19.383Z,60.90
2023-04-15T07:20:19.433Z,52.90
2023-04-15T07:21:19.351Z,55.00
2023-04-15T07:22:19.392Z,52.10
2023-04-15T07:23:19.687Z,46.30
2023-04-15T07:24:19.556Z,57.90
2023-04-15T07:25:19.301Z,56.30
2023-04-15T07:26:19.324Z,52.40
2023-04-15T07:27:19.831Z,54.50
2023-04-15T07:28:19.268Z,60.40
2023-04-15T07:29:19.272Z,61.00
2023-04-15T07:30:19.600Z,64.10
2023-04-15T07:31:20.116Z,59.90
2023-04-15T07:32:19.700Z,50.20
2023-04-15T07:33:19.341Z,51.60
2023-04-15T07:34:19.497Z,55.40
2023-04-15T07:35:19.421Z,52.60
2023-04-15T07:36:20.031Z,58.40
2023-04-15T07:37:19.134Z,55.40
2023-04-15T07:38:19.116Z,60.60
2023-04-15T07:39:19.829Z,48.60
2023-04-15T07:40:19.064Z,54.80
2023-04-15T07:41:19.065Z,64.90
2023-04-15T07:42:19.878Z,58.70
2023-04-15T07:43:19.048Z,62.70
2023-04-15T07:44:19.050Z,47.70
2023-04-15T07:45:19.016Z,53.90
2023-04-15T07:46:19.068Z,45.90
2023-04-15T07:47:19.034Z,52.40
2023-04-15T07:48:19.023Z,58.80
2023-04-15T07:49:19.132Z,56.30
2023-04-15T07:50:18.931Z,47.40
2023-04-15T07:51:19.098Z,50.10
2023-04-15T07:52:18.936Z,63.10
2023-04-15T07:53:18.914Z,59.50
2023-04-15T07:54:18.863Z,54.10
2023-04-15T07:55:19.478Z,44.40
2023-04-15T07:56:18.873Z,48.00
2023-04-15T07:57:18.844Z,50.50
2023-04-15T07:58:18.866Z,41.30
2023-04-15T07:59:18.879Z,46.30
2023-04-15T08:00:18.878Z,57.40
2023-04-15T08:01:18.811Z,59.40
2023-04-15T08:02:18.897Z,56.90
2023-04-15T08:03:18.919Z,50.00
2023-04-15T08:04:19.007Z,50.50
2023-04-15T08:05:19.228Z,47.50
2023-04-15T08:06:18.891Z,48.70
2023-04-15T08:07:18.777Z,55.00
2023-04-15T08:08:18.715Z,53.10
2023-04-15T08:09:18.699Z,54.40
2023-04-15T08:10:18.649Z,43.70
2023-04-15T08:11:18.717Z,46.80
2023-04-15T08:12:18.625Z,49.40
2023-04-15T08:13:18.612Z,45.50
2023-04-15T08:14:18.755Z,46.90
2023-04-15T08:15:18.881Z,45.20
2023-04-15T08:16:18.707Z,50.00
2023-04-15T08:17:18.843Z,49.70
2023-04-15T08:18:18.650Z,52.70
2023-04-15T08:19:19.179Z,43.30
2023-04-15T08:20:18.506Z,46.00
2023-04-15T08:21:18.858Z,41.50
2023-04-15T08:22:19.614Z,53.90
2023-04-15T08:23:18.941Z,55.90
2023-04-15T08:24:19.345Z,47.60
2023-04-15T08:25:18.588Z,44.80
2023-04-15T08:26:18.850Z,47.90
2023-04-15T08:27:18.468Z,44.70
2023-04-15T08:28:18.491Z,46.00
2023-04-15T08:29:19.184Z,43.00
2023-04-15T08:30:19.327Z,50.10
2023-04-15T08:31:19.222Z,43.80
2023-04-15T08:32:19.147Z,43.70
2023-04-15T08:33:18.321Z,48.10
2023-04-15T08:34:18.356Z,49.30
2023-04-15T08:35:19.060Z,58.60
2023-04-15T08:36:18.258Z,53.90
2023-04-15T08:37:18.530Z,45.80
2023-04-15T08:38:18.334Z,49.60
2023-04-15T08:39:18.280Z,43.50
2023-04-15T08:40:19.121Z,41.80
2023-04-15T08:41:18.551Z,40.90
2023-04-15T08:42:18.199Z,46.00
2023-04-15T08:43:18.884Z,45.20
2023-04-15T08:44:18.508Z,48.60
2023-04-15T08:45:19.135Z,39.40
2023-04-15T08:46:18.221Z,46.20
2023-04-15T08:47:18.174Z,51.30
2023-04-15T08:48:19.095Z,46.30
2023-04-15T08:49:18.518Z,43.00
2023-04-15T08:50:18.164Z,39.20
2023-04-15T08:51:18.183Z,41.50
2023-04-15T08:52:18.173Z,42.40
2023-04-15T08:53:18.871Z,48.50
2023-04-15T08:54:18.069Z,46.00
2023-04-15T08:55:18.949Z,45.90
2023-04-15T08:56:18.892Z,47.50
2023-04-15T08:57:18.219Z,42.60
2023-04-15T08:58:17.992Z,43.50
2023-04-15T08:59:18.295Z,39.70
2023-04-15T09:00:18.739Z,36.90
2023-04-15T09:01:18.924Z,40.50
2023-04-15T09:02:18.993Z,38.40
2023-04-15T09:03:18.138Z,40.40
2023-04-15T09:04:18.896Z,42.10
2023-04-15T09:05:17.989Z,37.70
2023-04-15T09:06:17.950Z,38.90
2023-04-15T09:07:17.883Z,40.40
2023-04-15T09:08:17.908Z,40.80
2023-04-15T09:09:17.879Z,36.20
2023-04-15T09:10:18.247Z,36.20
2023-04-15T09:11:19.432Z,38.80
2023-04-15T09:12:18.594Z,35.50
2023-04-15T09:13:18.037Z,34.70
2023-04-15T09:14:18.687Z,43.00
2023-04-15T09:15:17.896Z,39.50
2023-04-15T09:16:17.977Z,38.10
2023-04-15T09:17:17.759Z,35.10
2023-04-15T09:18:17.941Z,37.40
2023-04-15T09:19:17.714Z,35.40
2023-04-15T09:20:17.870Z,41.20
2023-04-15T09:21:18.534Z,33.10
2023-04-15T09:22:17.937Z,39.80
2023-04-15T09:23:17.620Z,42.80
2023-04-15T09:24:17.890Z,34.10
2023-04-15T09:25:17.932Z,32.20
2023-04-15T09:26:17.680Z,31.70
2023-04-15T09:27:18.270Z,31.80
2023-04-15T09:28:17.661Z,34.10
2023-04-15T09:29:17.611Z,32.00
2023-04-15T09:30:17.806Z,37.10
2023-04-15T09:31:17.569Z,35.80
2023-04-15T09:32:17.576Z,33.40
2023-04-15T09:33:17.675Z,36.60
2023-04-15T09:34:17.534Z,31.20
2023-04-15T09:35:17.488Z,31.20
2023-04-15T09:36:17.487Z,28.00
2023-04-15T09:37:31.507Z,29.50
2023-04-15T09:38:18.480Z,31.90
2023-04-15T09:39:18.342Z,28.50
2023-04-15T09:40:17.594Z,26.60
2023-04-15T09:41:17.563Z,29.20
2023-04-15T09:42:17.356Z,29.60
2023-04-15T09:43:17.460Z,27.60
2023-04-15T09:44:17.460Z,28.30
2023-04-15T09:45:17.404Z,26.30
2023-04-15T09:46:18.196Z,29.00
2023-04-15T09:47:17.382Z,29.50
2023-04-15T09:48:17.411Z,28.70
2023-04-15T09:49:17.286Z,29.60
2023-04-15T09:50:17.208Z,26.70
2023-04-15T09:51:17.617Z,26.70
2023-04-15T09:52:17.415Z,26.10
2023-04-15T09:53:17.237Z,25.00
2023-04-15T09:54:17.202Z,26.90
2023-04-15T09:55:17.224Z,25.60
2023-04-15T09:56:17.202Z,25.70
2023-04-15T09:57:17.146Z,24.00
2023-04-15T09:58:17.170Z,25.80
2023-04-15T09:59:17.339Z,24.40
2023-04-15T10:00:17.085Z,25.40
2023-04-15T10:01:17.165Z,24.90
2023-04-15T10:02:17.138Z,25.40
2023-04-15T10:03:17.188Z,25.80
2023-04-15T10:04:17.231Z,22.50
2023-04-15T10:05:17.078Z,24.10
2023-04-15T10:06:17.191Z,23.10
2023-04-15T10:07:17.098Z,24.50
2023-04-15T10:08:17.856Z,24.90
2023-04-15T10:09:17.408Z,24.80
2023-04-15T10:10:17.084Z,26.00
2023-04-15T10:11:17.027Z,23.80
2023-04-15T10:12:17.004Z,24.40
2023-04-15T10:13:16.926Z,24.00
2023-04-15T10:14:16.952Z,23.80
2023-04-15T10:15:16.880Z,23.80
2023-04-15T10:16:17.332Z,22.80
2023-04-15T10:17:17.045Z,23.20
2023-04-15T10:18:17.136Z,22.20
2023-04-15T10:19:16.809Z,22.20
2023-04-15T10:20:16.909Z,22.50
2023-04-15T10:21:16.934Z,22.00
2023-04-15T10:22:16.807Z,20.70
2023-04-15T10:23:16.937Z,22.90
2023-04-15T10:24:18.098Z,21.80
2023-04-15T10:25:16.828Z,22.20
2023-04-15T10:26:16.804Z,21.40
2023-04-15T10:27:16.751Z,20.10
2023-04-15T10:28:17.502Z,20.60
2023-04-15T10:29:16.691Z,20.20
2023-04-15T10:30:16.994Z,20.20
2023-04-15T10:31:16.938Z,20.10
2023-04-15T10:32:17.652Z,21.60
2023-04-15T10:33:16.770Z,19.10
2023-04-15T10:34:17.148Z,19.40
2023-04-15T10:35:16.686Z,17.90
2023-04-15T10:36:16.677Z,18.90
2023-04-15T10:37:17.156Z,19.40
2023-04-15T10:38:17.654Z,19.70
2023-04-15T10:39:16.670Z,18.90
2023-04-15T10:40:17.685Z,19.20
2023-04-15T10:41:18.036Z,18.60
2023-04-15T10:42:16.781Z,18.40
2023-04-15T10:43:17.925Z,19.50
2023-04-15T10:44:18.675Z,20.10
2023-04-15T10:45:16.533Z,18.80
2023-04-15T10:46:16.938Z,18.40
2023-04-15T10:47:16.431Z,17.30
2023-04-15T10:48:16.545Z,17.70
2023-04-15T10:49:16.967Z,18.20
2023-04-15T10:50:16.656Z,18.50
2023-04-15T10:51:16.719Z,19.10
2023-04-15T10:52:16.436Z,19.40
2023-04-15T10:53:16.497Z,18.80
2023-04-15T10:54:16.719Z,18.10
2023-04-15T10:55:16.612Z,18.90
2023-04-15T10:56:17.267Z,19.90
2023-04-15T10:57:17.107Z,18.60
2023-04-15T10:58:19.020Z,18.60
2023-04-15T10:59:16.491Z,18.80
2023-04-15T11:00:16.924Z,18.50
2023-04-15T11:01:16.240Z,17.70
2023-04-15T11:02:19.656Z,19.10
2023-04-15T11:03:16.912Z,18.90
2023-04-15T11:04:17.557Z,19.20
2023-04-15T11:05:16.346Z,17.40
2023-04-15T11:06:16.244Z,18.50
2023-04-15T11:07:16.339Z,18.80
2023-04-15T11:08:16.662Z,19.00
2023-04-15T11:09:16.597Z,18.30
2023-04-15T11:10:16.370Z,17.60
2023-04-15T11:11:16.162Z,17.60
2023-04-15T11:12:25.991Z,17.50
2023-04-15T11:13:17.487Z,16.70
2023-04-15T11:14:17.349Z,16.90
2023-04-15T11:15:16.047Z,16.20
2023-04-15T11:16:16.581Z,17.00
2023-04-15T11:17:16.850Z,16.90
2023-04-15T11:18:16.064Z,16.90
2023-04-15T11:19:48.772Z,17.10
2023-04-15T11:20:17.039Z,16.70
2023-04-15T11:21:16.052Z,15.40
2023-04-15T11:22:15.943Z,15.70
2023-04-15T11:23:16.209Z,15.80
2023-04-15T11:24:15.933Z,15.40
2023-04-15T11:25:16.235Z,15.70
2023-04-15T11:26:17.340Z,16.40
2023-04-15T11:27:15.849Z,15.90
2023-04-15T11:28:16.400Z,15.90
2023-04-15T11:29:15.926Z,15.80
2023-04-15T11:30:25.250Z,15.90
2023-04-15T11:31:15.904Z,16.10
2023-04-15T11:32:16.183Z,15.30
2023-04-15T11:33:16.077Z,16.00
2023-04-15T11:34:18.581Z,15.80
2023-04-15T11:35:17.597Z,15.50
2023-04-15T11:36:15.767Z,15.60
2023-04-15T11:38:27.631Z,15.50
2023-04-15T11:39:29.740Z,15.50
2023-04-15T11:40:27.934Z,16.00
2023-04-15T11:41:27.302Z,15.90
2023-04-15T11:42:36.210Z,17.00
2023-04-15T11:43:28.882Z,15.70
2023-04-15T11:44:27.565Z,15.60
2023-04-15T11:45:27.974Z,15.80
2023-04-15T11:46:27.464Z,16.00
2023-04-15T11:47:27.703Z,14.50
2023-04-15T11:48:27.941Z,15.90
2023-04-15T11:49:28.044Z,16.40
2023-04-15T11:50:27.512Z,16.30
2023-04-15T11:51:27.122Z,16.30
2023-04-15T11:52:27.119Z,15.30
2023-04-15T11:53:27.060Z,15.30
2023-04-15T11:54:27.069Z,15.70
2023-04-15T11:55:28.309Z,15.50
2023-04-15T11:56:27.022Z,15.60
2023-04-15T11:57:27.864Z,16.20
2023-04-15T11:58:27.475Z,16.10
2023-04-15T11:59:38.940Z,16.00
2023-04-15T12:00:28.708Z,17.10
2023-04-15T12:01:27.493Z,17.30
2023-04-15T12:02:27.024Z,15.80
2023-04-15T12:03:27.278Z,15.60
2023-04-15T12:04:27.014Z,13.60
2023-04-15T12:05:27.813Z,14.30
2023-04-15T12:06:27.092Z,14.40
2023-04-15T12:07:29.321Z,14.20
2023-04-15T12:08:27.261Z,14.40
2023-04-15T12:09:27.862Z,14.40
2023-04-15T12:10:28.311Z,13.30
2023-04-15T12:11:29.334Z,13.90
2023-04-15T12:12:27.032Z,13.60
2023-04-15T12:13:26.875Z,14.20
2023-04-15T12:14:26.892Z,13.30
2023-04-15T12:15:27.677Z,13.70
2023-04-15T12:16:26.917Z,12.90
2023-04-15T12:17:26.848Z,13.60
2023-04-15T12:18:27.230Z,13.30
2023-04-15T12:19:26.713Z,13.60
2023-04-15T12:20:27.664Z,13.00
2023-04-15T12:21:27.152Z,12.50
2023-04-15T12:22:27.146Z,12.10
2023-04-15T12:23:31.017Z,12.30
2023-04-15T12:24:27.670Z,12.40
2023-04-15T12:25:26.592Z,11.70
2023-04-15T12:26:26.621Z,11.50
2023-04-15T12:27:34.252Z,12.20
2023-04-15T12:28:26.588Z,11.60
2023-04-15T12:29:27.403Z,12.00
2023-04-15T12:30:26.656Z,12.10
2023-04-15T12:31:26.626Z,11.30
2023-04-15T12:32:26.538Z,11.70
2023-04-15T12:33:27.483Z,11.80
2023-04-15T12:34:27.451Z,11.80
2023-04-15T12:35:26.528Z,11.20
2023-04-15T12:36:27.715Z,11.60
2023-04-15T12:37:27.909Z,11.10
2023-04-15T12:38:27.269Z,11.50
2023-04-15T12:39:28.590Z,10.50
2023-04-15T12:40:26.770Z,10.80
2023-04-15T12:41:26.386Z,11.20
2023-04-15T12:42:26.423Z,11.20
2023-04-15T12:43:26.704Z,11.10
2023-04-15T12:44:26.358Z,10.80
2023-04-15T12:45:27.877Z,11.30
2023-04-15T12:46:27.082Z,10.80
2023-04-15T12:47:26.344Z,10.90
2023-04-15T12:48:26.599Z,10.70
2023-04-15T12:49:27.122Z,11.20
2023-04-15T12:50:26.791Z,10.10
2023-04-15T12:51:26.338Z,10.40
2023-04-15T12:52:26.308Z,10.30
2023-04-15T12:53:26.235Z,10.60
2023-04-15T12:54:26.186Z,10.40
2023-04-15T12:55:26.541Z,11.00